sensor_id;sensor_type;location;lat;lon;timestamp;P1;durP1;ratioP1;P2;durP2;ratioP2
20966;SDS011;10642;50.682;18.510;2023-04-29T00:00:41;17.93;;;9.37;;
20966;SDS011;10642;50.682;18.510;2023-04-29T00:03:08;17.87;;;9.70;;
20966;SDS011;10642;50.682;18.510;2023-04-29T00:05:35;18.40;;;9.60;;
20966;SDS011;10642;50.682;18.510;2023-04-29T00:08:02;17.07;;;9.33;;
20966;SDS011;10642;50.682;18.510;2023-04-29T00:10:30;17.43;;;9.60;;
20966;SDS011;10642;50.682;18.510;2023-04-29T00:12:57;15.37;;;9.27;;
20966;SDS011;10642;50.682;18.510;2023-04-29T00:15:24;17.17;;;8.97;;
20966;SDS011;10642;50.682;18.510;2023-04-29T00:17:51;18.97;;;9.50;;
20966;SDS011;10642;50.682;18.510;2023-04-29T00:20:17;19.80;;;9.73;;
20966;SDS011;10642;50.682;18.510;2023-04-29T00:22:44;14.73;;;9.43;;
20966;SDS011;10642;50.682;18.510;2023-04-29T00:25:11;19.33;;;9.53;;
20966;SDS011;10642;50.682;18.510;2023-04-29T00:27:38;17.17;;;9.67;;
20966;SDS011;10642;50.682;18.510;2023-04-29T00:30:06;16.20;;;9.77;;
20966;SDS011;10642;50.682;18.510;2023-04-29T00:32:33;16.97;;;10.20;;
20966;SDS011;10642;50.682;18.510;2023-04-29T00:35:00;17.10;;;9.80;;
20966;SDS011;10642;50.682;18.510;2023-04-29T00:37:27;18.53;;;11.33;;
20966;SDS011;10642;50.682;18.510;2023-04-29T00:39:54;20.87;;;9.87;;
20966;SDS011;10642;50.682;18.510;2023-04-29T00:42:21;18.03;;;9.77;;
20966;SDS011;10642;50.682;18.510;2023-04-29T00:44:48;19.53;;;10.10;;
20966;SDS011;10642;50.682;18.510;2023-04-29T00:47:15;17.13;;;9.33;;
20966;SDS011;10642;50.682;18.510;2023-04-29T00:49:42;20.07;;;10.03;;
20966;SDS011;10642;50.682;18.510;2023-04-29T00:52:10;19.37;;;10.80;;
20966;SDS011;10642;50.682;18.510;2023-04-29T00:54:37;19.13;;;10.80;;
20966;SDS011;10642;50.682;18.510;2023-04-29T00:57:05;24.23;;;11.50;;
20966;SDS011;10642;50.682;18.510;2023-04-29T00:59:32;21.00;;;11.60;;
20966;SDS011;10642;50.682;18.510;2023-04-29T01:02:00;22.53;;;11.03;;
20966;SDS011;10642;50.682;18.510;2023-04-29T01:04:29;23.00;;;13.07;;
20966;SDS011;10642;50.682;18.510;2023-04-29T01:07:12;25.83;;;12.20;;
20966;SDS011;10642;50.682;18.510;2023-04-29T01:10:24;25.90;;;12.07;;
20966;SDS011;10642;50.682;18.510;2023-04-29T01:12:32;25.63;;;12.73;;
20966;SDS011;10642;50.682;18.510;2023-04-29T01:17:28;21.97;;;12.57;;
20966;SDS011;10642;50.682;18.510;2023-04-29T01:19:58;24.60;;;12.83;;
20966;SDS011;10642;50.682;18.510;2023-04-29T01:22:26;26.43;;;13.10;;
20966;SDS011;10642;50.682;18.510;2023-04-29T01:24:53;23.27;;;13.37;;
20966;SDS011;10642;50.682;18.510;2023-04-29T01:35:39;25.67;;;12.60;;
20966;SDS011;10642;50.682;18.510;2023-04-29T01:43:34;27.07;;;13.70;;
20966;SDS011;10642;50.682;18.510;2023-04-29T01:46:12;26.47;;;13.70;;
20966;SDS011;10642;50.682;18.510;2023-04-29T01:48:42;31.57;;;14.07;;
20966;SDS011;10642;50.682;18.510;2023-04-29T01:51:09;27.27;;;13.20;;
20966;SDS011;10642;50.682;18.510;2023-04-29T01:53:37;23.77;;;13.20;;
20966;SDS011;10642;50.682;18.510;2023-04-29T01:56:07;26.50;;;13.07;;
20966;SDS011;10642;50.682;18.510;2023-04-29T01:58:54;25.80;;;14.47;;
20966;SDS011;10642;50.682;18.510;2023-04-29T02:01:31;23.43;;;13.90;;
20966;SDS011;10642;50.682;18.510;2023-04-29T02:03:59;24.87;;;13.97;;
20966;SDS011;10642;50.682;18.510;2023-04-29T02:06:26;26.10;;;14.47;;
20966;SDS011;10642;50.682;18.510;2023-04-29T02:08:58;23.23;;;13.83;;
20966;SDS011;10642;50.682;18.510;2023-04-29T02:11:25;24.03;;;13.43;;
20966;SDS011;10642;50.682;18.510;2023-04-29T02:13:54;28.07;;;15.10;;
20966;SDS011;10642;50.682;18.510;2023-04-29T02:16:22;21.70;;;13.80;;
20966;SDS011;10642;50.682;18.510;2023-04-29T02:19:01;23.23;;;13.70;;
20966;SDS011;10642;50.682;18.510;2023-04-29T02:21:28;22.80;;;13.23;;
20966;SDS011;10642;50.682;18.510;2023-04-29T02:23:55;23.57;;;13.50;;
20966;SDS011;10642;50.682;18.510;2023-04-29T02:26:23;21.87;;;12.83;;
20966;SDS011;10642;50.682;18.510;2023-04-29T02:28:53;22.70;;;13.20;;
20966;SDS011;10642;50.682;18.510;2023-04-29T02:31:20;25.20;;;12.07;;
20966;SDS011;10642;50.682;18.510;2023-04-29T02:33:47;22.47;;;12.97;;
20966;SDS011;10642;50.682;18.510;2023-04-29T02:36:14;23.87;;;14.13;;
20966;SDS011;10642;50.682;18.510;2023-04-29T02:38:42;25.53;;;13.07;;
20966;SDS011;10642;50.682;18.510;2023-04-29T02:41:09;24.47;;;13.03;;
20966;SDS011;10642;50.682;18.510;2023-04-29T02:43:36;22.43;;;13.10;;
20966;SDS011;10642;50.682;18.510;2023-04-29T02:46:03;25.77;;;12.77;;
20966;SDS011;10642;50.682;18.510;2023-04-29T02:48:30;22.77;;;11.80;;
20966;SDS011;10642;50.682;18.510;2023-04-29T02:50:56;20.20;;;12.27;;
20966;SDS011;10642;50.682;18.510;2023-04-29T02:53:23;21.03;;;11.30;;
20966;SDS011;10642;50.682;18.510;2023-04-29T02:55:50;22.40;;;11.70;;
20966;SDS011;10642;50.682;18.510;2023-04-29T02:58:17;18.90;;;11.90;;
20966;SDS011;10642;50.682;18.510;2023-04-29T03:00:44;20.23;;;11.23;;
20966;SDS011;10642;50.682;18.510;2023-04-29T03:03:11;19.27;;;10.77;;
20966;SDS011;10642;50.682;18.510;2023-04-29T03:05:38;24.20;;;11.67;;
20966;SDS011;10642;50.682;18.510;2023-04-29T03:08:05;20.07;;;10.87;;
20966;SDS011;10642;50.682;18.510;2023-04-29T03:10:33;19.67;;;11.30;;
20966;SDS011;10642;50.682;18.510;2023-04-29T03:13:01;20.23;;;11.13;;
20966;SDS011;10642;50.682;18.510;2023-04-29T03:15:29;22.10;;;11.10;;
20966;SDS011;10642;50.682;18.510;2023-04-29T03:17:56;19.37;;;10.90;;
20966;SDS011;10642;50.682;18.510;2023-04-29T03:20:27;22.40;;;11.30;;
20966;SDS011;10642;50.682;18.510;2023-04-29T03:22:55;22.30;;;11.50;;
20966;SDS011;10642;50.682;18.510;2023-04-29T03:25:22;27.30;;;11.07;;
20966;SDS011;10642;50.682;18.510;2023-04-29T03:27:50;24.90;;;11.93;;
20966;SDS011;10642;50.682;18.510;2023-04-29T03:30:17;19.97;;;10.80;;
20966;SDS011;10642;50.682;18.510;2023-04-29T03:32:48;18.10;;;10.07;;
20966;SDS011;10642;50.682;18.510;2023-04-29T03:35:15;22.20;;;10.13;;
20966;SDS011;10642;50.682;18.510;2023-04-29T03:38:02;16.50;;;10.03;;
20966;SDS011;10642;50.682;18.510;2023-04-29T03:40:32;18.23;;;10.40;;
20966;SDS011;10642;50.682;18.510;2023-04-29T03:42:59;22.73;;;10.53;;
20966;SDS011;10642;50.682;18.510;2023-04-29T03:45:26;21.37;;;10.83;;
20966;SDS011;10642;50.682;18.510;2023-04-29T03:47:53;17.17;;;10.13;;
20966;SDS011;10642;50.682;18.510;2023-04-29T03:50:21;19.33;;;10.87;;
20966;SDS011;10642;50.682;18.510;2023-04-29T03:52:48;20.23;;;10.13;;
20966;SDS011;10642;50.682;18.510;2023-04-29T03:55:17;19.10;;;11.53;;
20966;SDS011;10642;50.682;18.510;2023-04-29T03:57:44;19.40;;;10.57;;
20966;SDS011;10642;50.682;18.510;2023-04-29T04:00:12;17.03;;;10.17;;
20966;SDS011;10642;50.682;18.510;2023-04-29T04:02:43;18.03;;;10.00;;
20966;SDS011;10642;50.682;18.510;2023-04-29T04:05:12;19.43;;;10.40;;
20966;SDS011;10642;50.682;18.510;2023-04-29T04:07:43;19.40;;;10.33;;
20966;SDS011;10642;50.682;18.510;2023-04-29T04:10:42;18.70;;;9.97;;
20966;SDS011;10642;50.682;18.510;2023-04-29T04:13:28;18.53;;;10.83;;
20966;SDS011;10642;50.682;18.510;2023-04-29T04:15:55;21.03;;;10.00;;
20966;SDS011;10642;50.682;18.510;2023-04-29T04:18:22;16.77;;;9.73;;
20966;SDS011;10642;50.682;18.510;2023-04-29T04:20:49;19.07;;;10.27;;
20966;SDS011;10642;50.682;18.510;2023-04-29T04:23:16;19.10;;;9.83;;
20966;SDS011;10642;50.682;18.510;2023-04-29T04:25:44;15.93;;;9.57;;
20966;SDS011;10642;50.682;18.510;2023-04-29T04:28:30;16.50;;;9.60;;
20966;SDS011;10642;50.682;18.510;2023-04-29T04:31:02;18.10;;;9.33;;
20966;SDS011;10642;50.682;18.510;2023-04-29T04:33:32;18.33;;;9.00;;
20966;SDS011;10642;50.682;18.510;2023-04-29T04:36:00;14.80;;;8.87;;
20966;SDS011;10642;50.682;18.510;2023-04-29T04:38:28;19.97;;;10.20;;
20966;SDS011;10642;50.682;18.510;2023-04-29T04:40:55;16.57;;;9.20;;
20966;SDS011;10642;50.682;18.510;2023-04-29T04:43:36;16.37;;;8.53;;
20966;SDS011;10642;50.682;18.510;2023-04-29T04:46:08;15.67;;;8.70;;
20966;SDS011;10642;50.682;18.510;2023-04-29T04:48:39;18.63;;;9.30;;
20966;SDS011;10642;50.682;18.510;2023-04-29T04:51:11;13.60;;;8.90;;
20966;SDS011;10642;50.682;18.510;2023-04-29T04:53:39;15.83;;;9.57;;
20966;SDS011;10642;50.682;18.510;2023-04-29T04:56:11;13.23;;;8.37;;
20966;SDS011;10642;50.682;18.510;2023-04-29T04:58:38;18.97;;;8.47;;
20966;SDS011;10642;50.682;18.510;2023-04-29T05:01:04;14.80;;;8.13;;
20966;SDS011;10642;50.682;18.510;2023-04-29T05:03:32;16.73;;;8.90;;
20966;SDS011;10642;50.682;18.510;2023-04-29T05:06:00;19.73;;;9.10;;
20966;SDS011;10642;50.682;18.510;2023-04-29T05:08:28;17.50;;;8.77;;
20966;SDS011;10642;50.682;18.510;2023-04-29T05:10:57;14.13;;;8.23;;
20966;SDS011;10642;50.682;18.510;2023-04-29T05:13:24;15.43;;;8.67;;
20966;SDS011;10642;50.682;18.510;2023-04-29T05:15:51;14.67;;;8.10;;
20966;SDS011;10642;50.682;18.510;2023-04-29T05:18:22;14.13;;;8.40;;
20966;SDS011;10642;50.682;18.510;2023-04-29T05:20:50;15.40;;;9.03;;
20966;SDS011;10642;50.682;18.510;2023-04-29T05:23:17;14.37;;;8.37;;
20966;SDS011;10642;50.682;18.510;2023-04-29T05:25:45;18.97;;;8.40;;
20966;SDS011;10642;50.682;18.510;2023-04-29T05:28:15;17.03;;;8.40;;
20966;SDS011;10642;50.682;18.510;2023-04-29T05:30:42;15.67;;;7.50;;
20966;SDS011;10642;50.682;18.510;2023-04-29T05:33:10;15.83;;;8.40;;
20966;SDS011;10642;50.682;18.510;2023-04-29T05:35:37;12.07;;;8.33;;
20966;SDS011;10642;50.682;18.510;2023-04-29T05:38:04;12.33;;;7.67;;
20966;SDS011;10642;50.682;18.510;2023-04-29T05:40:37;17.00;;;8.13;;
20966;SDS011;10642;50.682;18.510;2023-04-29T05:43:23;17.40;;;8.07;;
20966;SDS011;10642;50.682;18.510;2023-04-29T05:45:51;12.17;;;7.53;;
20966;SDS011;10642;50.682;18.510;2023-04-29T05:48:18;18.67;;;9.10;;
20966;SDS011;10642;50.682;18.510;2023-04-29T05:50:45;15.97;;;7.23;;
20966;SDS011;10642;50.682;18.510;2023-04-29T05:53:13;14.07;;;7.70;;
20966;SDS011;10642;50.682;18.510;2023-04-29T05:55:41;10.00;;;6.47;;
20966;SDS011;10642;50.682;18.510;2023-04-29T05:58:11;15.53;;;7.67;;
20966;SDS011;10642;50.682;18.510;2023-04-29T06:00:38;13.73;;;7.43;;
20966;SDS011;10642;50.682;18.510;2023-04-29T06:03:13;12.47;;;7.33;;
20966;SDS011;10642;50.682;18.510;2023-04-29T06:05:40;11.43;;;7.40;;
20966;SDS011;10642;50.682;18.510;2023-04-29T06:08:27;10.20;;;6.93;;
20966;SDS011;10642;50.682;18.510;2023-04-29T06:11:01;13.67;;;7.33;;
20966;SDS011;10642;50.682;18.510;2023-04-29T06:13:31;12.43;;;7.23;;
20966;SDS011;10642;50.682;18.510;2023-04-29T06:15:58;11.90;;;7.07;;
20966;SDS011;10642;50.682;18.510;2023-04-29T06:18:29;14.40;;;7.27;;
20966;SDS011;10642;50.682;18.510;2023-04-29T06:20:57;15.27;;;8.03;;
20966;SDS011;10642;50.682;18.510;2023-04-29T06:23:24;12.37;;;7.17;;
20966;SDS011;10642;50.682;18.510;2023-04-29T06:25:51;11.37;;;7.40;;
20966;SDS011;10642;50.682;18.510;2023-04-29T06:28:20;11.17;;;6.77;;
20966;SDS011;10642;50.682;18.510;2023-04-29T06:30:47;19.37;;;7.13;;
20966;SDS011;10642;50.682;18.510;2023-04-29T06:33:14;15.80;;;7.20;;
20966;SDS011;10642;50.682;18.510;2023-04-29T06:35:41;10.97;;;6.53;;
20966;SDS011;10642;50.682;18.510;2023-04-29T06:38:40;14.97;;;7.23;;
20966;SDS011;10642;50.682;18.510;2023-04-29T06:41:27;11.57;;;7.20;;
20966;SDS011;10642;50.682;18.510;2023-04-29T06:43:59;7.67;;;4.37;;
20966;SDS011;10642;50.682;18.510;2023-04-29T06:46:35;11.33;;;6.40;;
20966;SDS011;10642;50.682;18.510;2023-04-29T06:49:07;10.80;;;5.53;;
20966;SDS011;10642;50.682;18.510;2023-04-29T06:51:38;13.17;;;6.50;;
20966;SDS011;10642;50.682;18.510;2023-04-29T06:54:05;12.43;;;6.43;;
20966;SDS011;10642;50.682;18.510;2023-04-29T06:56:31;12.07;;;6.93;;
20966;SDS011;10642;50.682;18.510;2023-04-29T06:58:58;11.97;;;6.30;;
20966;SDS011;10642;50.682;18.510;2023-04-29T07:01:26;12.37;;;6.87;;
20966;SDS011;10642;50.682;18.510;2023-04-29T07:03:53;16.43;;;7.13;;
20966;SDS011;10642;50.682;18.510;2023-04-29T07:06:20;13.57;;;7.07;;
20966;SDS011;10642;50.682;18.510;2023-04-29T07:08:47;12.17;;;6.87;;
20966;SDS011;10642;50.682;18.510;2023-04-29T07:11:14;15.97;;;7.53;;
20966;SDS011;10642;50.682;18.510;2023-04-29T07:13:41;17.17;;;7.23;;
20966;SDS011;10642;50.682;18.510;2023-04-29T07:16:17;11.70;;;6.77;;
20966;SDS011;10642;50.682;18.510;2023-04-29T07:18:49;12.20;;;7.97;;
20966;SDS011;10642;50.682;18.510;2023-04-29T07:21:16;12.80;;;7.50;;
20966;SDS011;10642;50.682;18.510;2023-04-29T07:23:43;11.00;;;7.33;;
20966;SDS011;10642;50.682;18.510;2023-04-29T07:26:14;16.60;;;7.53;;
20966;SDS011;10642;50.682;18.510;2023-04-29T07:28:44;12.07;;;6.73;;
20966;SDS011;10642;50.682;18.510;2023-04-29T07:31:11;10.43;;;7.00;;
20966;SDS011;10642;50.682;18.510;2023-04-29T07:33:38;10.73;;;7.10;;
20966;SDS011;10642;50.682;18.510;2023-04-29T07:36:05;15.03;;;8.30;;
20966;SDS011;10642;50.682;18.510;2023-04-29T07:38:36;12.80;;;7.70;;
20966;SDS011;10642;50.682;18.510;2023-04-29T07:41:03;11.60;;;7.03;;
20966;SDS011;10642;50.682;18.510;2023-04-29T07:43:32;16.13;;;8.13;;
20966;SDS011;10642;50.682;18.510;2023-04-29T07:45:59;12.63;;;7.47;;
20966;SDS011;10642;50.682;18.510;2023-04-29T07:48:27;17.43;;;8.27;;
20966;SDS011;10642;50.682;18.510;2023-04-29T07:50:54;10.83;;;7.80;;
20966;SDS011;10642;50.682;18.510;2023-04-29T07:53:21;13.13;;;7.33;;
20966;SDS011;10642;50.682;18.510;2023-04-29T07:55:49;15.17;;;7.33;;
20966;SDS011;10642;50.682;18.510;2023-04-29T07:58:18;13.17;;;7.30;;
20966;SDS011;10642;50.682;18.510;2023-04-29T08:00:45;11.43;;;6.77;;
20966;SDS011;10642;50.682;18.510;2023-04-29T08:03:13;13.43;;;8.10;;
20966;SDS011;10642;50.682;18.510;2023-04-29T08:05:40;19.47;;;10.17;;
20966;SDS011;10642;50.682;18.510;2023-04-29T08:08:12;12.93;;;7.63;;
20966;SDS011;10642;50.682;18.510;2023-04-29T08:10:39;11.03;;;7.37;;
20966;SDS011;10642;50.682;18.510;2023-04-29T08:13:09;11.83;;;7.23;;
20966;SDS011;10642;50.682;18.510;2023-04-29T08:15:36;14.93;;;7.60;;
20966;SDS011;10642;50.682;18.510;2023-04-29T08:18:03;13.27;;;7.23;;
20966;SDS011;10642;50.682;18.510;2023-04-29T08:20:30;15.77;;;7.20;;
20966;SDS011;10642;50.682;18.510;2023-04-29T08:22:57;15.43;;;7.47;;
20966;SDS011;10642;50.682;18.510;2023-04-29T08:25:24;12.13;;;8.27;;
20966;SDS011;10642;50.682;18.510;2023-04-29T08:27:52;12.03;;;7.13;;
20966;SDS011;10642;50.682;18.510;2023-04-29T08:30:19;11.30;;;7.20;;
20966;SDS011;10642;50.682;18.510;2023-04-29T08:32:46;12.70;;;7.50;;
20966;SDS011;10642;50.682;18.510;2023-04-29T08:35:13;16.97;;;7.67;;
20966;SDS011;10642;50.682;18.510;2023-04-29T08:37:40;14.33;;;7.70;;
20966;SDS011;10642;50.682;18.510;2023-04-29T08:40:08;14.50;;;7.90;;
20966;SDS011;10642;50.682;18.510;2023-04-29T08:42:35;12.07;;;7.23;;
20966;SDS011;10642;50.682;18.510;2023-04-29T08:45:02;15.30;;;7.37;;
20966;SDS011;10642;50.682;18.510;2023-04-29T08:47:30;10.23;;;6.57;;
20966;SDS011;10642;50.682;18.510;2023-04-29T08:50:01;15.60;;;7.57;;
20966;SDS011;10642;50.682;18.510;2023-04-29T08:52:30;13.60;;;7.50;;
20966;SDS011;10642;50.682;18.510;2023-04-29T08:55:00;10.93;;;7.83;;
20966;SDS011;10642;50.682;18.510;2023-04-29T08:57:34;14.63;;;7.93;;
20966;SDS011;10642;50.682;18.510;2023-04-29T09:00:08;11.40;;;7.00;;
20966;SDS011;10642;50.682;18.510;2023-04-29T09:02:40;12.53;;;7.30;;
20966;SDS011;10642;50.682;18.510;2023-04-29T09:05:09;13.63;;;8.30;;
20966;SDS011;10642;50.682;18.510;2023-04-29T09:07:39;11.57;;;7.73;;
20966;SDS011;10642;50.682;18.510;2023-04-29T09:10:07;15.40;;;8.23;;
20966;SDS011;10642;50.682;18.510;2023-04-29T09:12:34;15.47;;;8.27;;
20966;SDS011;10642;50.682;18.510;2023-04-29T09:15:02;11.87;;;7.00;;
20966;SDS011;10642;50.682;18.510;2023-04-29T09:17:39;15.83;;;7.60;;
20966;SDS011;10642;50.682;18.510;2023-04-29T09:23:21;8.57;;;4.97;;
20966;SDS011;10642;50.682;18.510;2023-04-29T09:25:40;13.87;;;7.13;;
20966;SDS011;10642;50.682;18.510;2023-04-29T09:28:14;12.20;;;6.73;;
20966;SDS011;10642;50.682;18.510;2023-04-29T09:30:45;12.10;;;7.40;;
20966;SDS011;10642;50.682;18.510;2023-04-29T09:33:12;16.67;;;7.83;;
20966;SDS011;10642;50.682;18.510;2023-04-29T09:35:41;25.43;;;9.37;;
20966;SDS011;10642;50.682;18.510;2023-04-29T09:38:09;12.63;;;8.23;;
20966;SDS011;10642;50.682;18.510;2023-04-29T09:40:36;10.87;;;7.27;;
20966;SDS011;10642;50.682;18.510;2023-04-29T09:43:23;68.77;;;11.37;;
20966;SDS011;10642;50.682;18.510;2023-04-29T09:45:50;24.67;;;8.00;;
20966;SDS011;10642;50.682;18.510;2023-04-29T09:48:17;14.73;;;6.60;;
20966;SDS011;10642;50.682;18.510;2023-04-29T09:50:44;43.93;;;10.40;;
20966;SDS011;10642;50.682;18.510;2023-04-29T09:53:28;16.67;;;8.13;;
20966;SDS011;10642;50.682;18.510;2023-04-29T09:58:26;9.07;;;4.83;;
20966;SDS011;10642;50.682;18.510;2023-04-29T10:00:53;12.03;;;5.17;;
20966;SDS011;10642;50.682;18.510;2023-04-29T10:03:20;13.83;;;7.00;;
20966;SDS011;10642;50.682;18.510;2023-04-29T10:05:48;12.87;;;6.97;;
20966;SDS011;10642;50.682;18.510;2023-04-29T10:08:15;16.07;;;9.17;;
20966;SDS011;10642;50.682;18.510;2023-04-29T10:10:42;11.57;;;6.30;;
20966;SDS011;10642;50.682;18.510;2023-04-29T10:13:09;8.80;;;5.63;;
20966;SDS011;10642;50.682;18.510;2023-04-29T10:15:38;15.60;;;8.30;;
20966;SDS011;10642;50.682;18.510;2023-04-29T10:18:13;15.80;;;8.87;;
20966;SDS011;10642;50.682;18.510;2023-04-29T10:20:45;14.13;;;7.70;;
20966;SDS011;10642;50.682;18.510;2023-04-29T10:23:13;15.37;;;7.47;;
20966;SDS011;10642;50.682;18.510;2023-04-29T10:25:41;11.90;;;5.73;;
20966;SDS011;10642;50.682;18.510;2023-04-29T10:28:09;10.43;;;6.03;;
20966;SDS011;10642;50.682;18.510;2023-04-29T10:30:41;13.67;;;7.93;;
20966;SDS011;10642;50.682;18.510;2023-04-29T10:33:09;16.17;;;9.67;;
20966;SDS011;10642;50.682;18.510;2023-04-29T10:35:37;12.87;;;8.57;;
20966;SDS011;10642;50.682;18.510;2023-04-29T10:38:05;19.53;;;8.20;;
20966;SDS011;10642;50.682;18.510;2023-04-29T10:40:35;19.90;;;8.73;;
20966;SDS011;10642;50.682;18.510;2023-04-29T10:43:05;17.93;;;8.03;;
20966;SDS011;10642;50.682;18.510;2023-04-29T10:45:32;18.83;;;9.07;;
20966;SDS011;10642;50.682;18.510;2023-04-29T10:50:32;13.60;;;8.63;;
20966;SDS011;10642;50.682;18.510;2023-04-29T10:53:03;14.20;;;8.83;;
20966;SDS011;10642;50.682;18.510;2023-04-29T10:55:30;16.43;;;8.43;;
20966;SDS011;10642;50.682;18.510;2023-04-29T10:57:57;15.07;;;9.40;;
20966;SDS011;10642;50.682;18.510;2023-04-29T11:00:28;17.97;;;11.77;;
20966;SDS011;10642;50.682;18.510;2023-04-29T11:02:56;15.17;;;10.17;;
20966;SDS011;10642;50.682;18.510;2023-04-29T11:05:30;15.53;;;9.67;;
20966;SDS011;10642;50.682;18.510;2023-04-29T11:10:36;16.83;;;10.83;;
20966;SDS011;10642;50.682;18.510;2023-04-29T11:16:09;18.13;;;10.97;;
20966;SDS011;10642;50.682;18.510;2023-04-29T11:19:03;22.77;;;12.87;;
20966;SDS011;10642;50.682;18.510;2023-04-29T11:21:23;19.90;;;12.13;;
20966;SDS011;10642;50.682;18.510;2023-04-29T11:23:50;19.20;;;12.93;;
20966;SDS011;10642;50.682;18.510;2023-04-29T11:26:20;20.07;;;12.30;;
20966;SDS011;10642;50.682;18.510;2023-04-29T11:28:48;18.07;;;11.70;;
20966;SDS011;10642;50.682;18.510;2023-04-29T11:31:17;17.53;;;9.87;;
20966;SDS011;10642;50.682;18.510;2023-04-29T11:33:45;17.23;;;10.73;;
20966;SDS011;10642;50.682;18.510;2023-04-29T11:36:12;20.07;;;12.13;;
20966;SDS011;10642;50.682;18.510;2023-04-29T11:38:39;18.97;;;10.67;;
20966;SDS011;10642;50.682;18.510;2023-04-29T11:41:10;20.73;;;10.07;;
20966;SDS011;10642;50.682;18.510;2023-04-29T11:43:37;17.13;;;11.00;;
20966;SDS011;10642;50.682;18.510;2023-04-29T11:46:10;16.47;;;11.60;;
20966;SDS011;10642;50.682;18.510;2023-04-29T11:48:44;18.80;;;12.20;;
20966;SDS011;10642;50.682;18.510;2023-04-29T11:51:11;22.10;;;12.77;;
20966;SDS011;10642;50.682;18.510;2023-04-29T11:53:38;20.07;;;13.33;;
20966;SDS011;10642;50.682;18.510;2023-04-29T11:56:05;19.13;;;11.90;;
20966;SDS011;10642;50.682;18.510;2023-04-29T11:58:31;17.33;;;11.33;;
20966;SDS011;10642;50.682;18.510;2023-04-29T12:00:58;24.50;;;12.90;;
20966;SDS011;10642;50.682;18.510;2023-04-29T12:03:25;19.60;;;11.03;;
20966;SDS011;10642;50.682;18.510;2023-04-29T12:05:53;19.57;;;11.27;;
20966;SDS011;10642;50.682;18.510;2023-04-29T12:08:21;18.93;;;12.90;;
20966;SDS011;10642;50.682;18.510;2023-04-29T12:10:48;24.00;;;12.97;;
20966;SDS011;10642;50.682;18.510;2023-04-29T12:13:15;20.57;;;13.47;;
20966;SDS011;10642;50.682;18.510;2023-04-29T12:15:43;21.20;;;13.53;;
20966;SDS011;10642;50.682;18.510;2023-04-29T12:18:10;22.67;;;13.57;;
20966;SDS011;10642;50.682;18.510;2023-04-29T12:20:37;20.20;;;13.03;;
20966;SDS011;10642;50.682;18.510;2023-04-29T12:23:11;18.80;;;11.43;;
20966;SDS011;10642;50.682;18.510;2023-04-29T12:25:39;19.53;;;11.67;;
20966;SDS011;10642;50.682;18.510;2023-04-29T12:28:12;17.90;;;11.60;;
20966;SDS011;10642;50.682;18.510;2023-04-29T12:30:39;18.83;;;11.23;;
20966;SDS011;10642;50.682;18.510;2023-04-29T12:33:09;16.90;;;10.07;;
20966;SDS011;10642;50.682;18.510;2023-04-29T12:35:36;20.07;;;10.10;;
20966;SDS011;10642;50.682;18.510;2023-04-29T12:38:03;16.73;;;10.50;;
20966;SDS011;10642;50.682;18.510;2023-04-29T12:40:30;19.10;;;12.27;;
20966;SDS011;10642;50.682;18.510;2023-04-29T12:43:05;17.73;;;11.57;;
20966;SDS011;10642;50.682;18.510;2023-04-29T12:45:32;15.30;;;10.43;;
20966;SDS011;10642;50.682;18.510;2023-04-29T12:48:00;18.63;;;10.30;;
20966;SDS011;10642;50.682;18.510;2023-04-29T12:50:30;17.43;;;10.23;;
20966;SDS011;10642;50.682;18.510;2023-04-29T12:52:58;14.93;;;10.03;;
20966;SDS011;10642;50.682;18.510;2023-04-29T12:55:25;17.87;;;10.47;;
20966;SDS011;10642;50.682;18.510;2023-04-29T12:57:52;18.27;;;9.83;;
20966;SDS011;10642;50.682;18.510;2023-04-29T13:00:19;14.70;;;10.10;;
20966;SDS011;10642;50.682;18.510;2023-04-29T13:02:46;18.07;;;10.70;;
20966;SDS011;10642;50.682;18.510;2023-04-29T13:05:13;17.80;;;9.90;;
20966;SDS011;10642;50.682;18.510;2023-04-29T13:07:41;18.47;;;10.03;;
20966;SDS011;10642;50.682;18.510;2023-04-29T13:10:08;15.73;;;9.60;;
20966;SDS011;10642;50.682;18.510;2023-04-29T13:12:37;16.10;;;9.73;;
20966;SDS011;10642;50.682;18.510;2023-04-29T13:15:05;15.07;;;9.63;;
20966;SDS011;10642;50.682;18.510;2023-04-29T13:17:35;21.57;;;10.50;;
20966;SDS011;10642;50.682;18.510;2023-04-29T13:20:05;18.67;;;10.43;;
20966;SDS011;10642;50.682;18.510;2023-04-29T13:22:32;17.33;;;10.40;;
20966;SDS011;10642;50.682;18.510;2023-04-29T13:24:59;16.73;;;10.73;;
20966;SDS011;10642;50.682;18.510;2023-04-29T13:27:26;15.80;;;10.37;;
20966;SDS011;10642;50.682;18.510;2023-04-29T13:29:53;17.67;;;11.20;;
20966;SDS011;10642;50.682;18.510;2023-04-29T13:32:20;14.90;;;10.17;;
20966;SDS011;10642;50.682;18.510;2023-04-29T13:34:50;17.30;;;10.27;;
20966;SDS011;10642;50.682;18.510;2023-04-29T13:37:17;14.47;;;10.50;;
20966;SDS011;10642;50.682;18.510;2023-04-29T13:39:45;14.60;;;9.90;;
20966;SDS011;10642;50.682;18.510;2023-04-29T13:42:13;18.10;;;11.23;;
20966;SDS011;10642;50.682;18.510;2023-04-29T13:44:41;16.97;;;10.10;;
20966;SDS011;10642;50.682;18.510;2023-04-29T13:47:24;16.27;;;9.70;;
20966;SDS011;10642;50.682;18.510;2023-04-29T13:49:56;16.73;;;10.80;;
20966;SDS011;10642;50.682;18.510;2023-04-29T13:52:43;19.57;;;11.37;;
20966;SDS011;10642;50.682;18.510;2023-04-29T13:55:13;14.50;;;9.87;;
20966;SDS011;10642;50.682;18.510;2023-04-29T13:58:00;17.33;;;11.23;;
20966;SDS011;10642;50.682;18.510;2023-04-29T14:00:47;15.07;;;9.60;;
20966;SDS011;10642;50.682;18.510;2023-04-29T14:03:17;14.63;;;9.30;;
20966;SDS011;10642;50.682;18.510;2023-04-29T14:05:44;16.77;;;10.43;;
20966;SDS011;10642;50.682;18.510;2023-04-29T14:08:11;15.23;;;9.77;;
20966;SDS011;10642;50.682;18.510;2023-04-29T14:10:39;12.27;;;8.33;;
20966;SDS011;10642;50.682;18.510;2023-04-29T14:13:06;12.97;;;8.63;;
20966;SDS011;10642;50.682;18.510;2023-04-29T14:15:33;11.17;;;6.30;;
20966;SDS011;10642;50.682;18.510;2023-04-29T14:18:01;7.47;;;5.20;;
20966;SDS011;10642;50.682;18.510;2023-04-29T14:20:28;9.60;;;5.10;;
20966;SDS011;10642;50.682;18.510;2023-04-29T14:22:55;10.67;;;6.27;;
20966;SDS011;10642;50.682;18.510;2023-04-29T14:25:22;10.43;;;5.60;;
20966;SDS011;10642;50.682;18.510;2023-04-29T14:27:49;10.33;;;6.13;;
20966;SDS011;10642;50.682;18.510;2023-04-29T14:30:15;8.70;;;5.97;;
20966;SDS011;10642;50.682;18.510;2023-04-29T14:32:42;11.47;;;5.87;;
20966;SDS011;10642;50.682;18.510;2023-04-29T14:35:09;12.10;;;6.60;;
20966;SDS011;10642;50.682;18.510;2023-04-29T14:37:36;9.97;;;6.37;;
20966;SDS011;10642;50.682;18.510;2023-04-29T14:40:03;8.90;;;6.13;;
20966;SDS011;10642;50.682;18.510;2023-04-29T14:42:31;13.20;;;7.10;;
20966;SDS011;10642;50.682;18.510;2023-04-29T14:44:58;7.93;;;5.27;;
20966;SDS011;10642;50.682;18.510;2023-04-29T14:47:25;9.53;;;5.40;;
20966;SDS011;10642;50.682;18.510;2023-04-29T14:49:52;9.53;;;6.30;;
20966;SDS011;10642;50.682;18.510;2023-04-29T14:52:19;11.50;;;6.10;;
20966;SDS011;10642;50.682;18.510;2023-04-29T14:54:46;9.10;;;6.33;;
20966;SDS011;10642;50.682;18.510;2023-04-29T14:57:13;11.87;;;6.10;;